createdAt,value
2023-02-08T00:02:10.615Z,9.80
2023-02-08T00:04:39.066Z,10.52
2023-02-08T00:07:07.402Z,9.95
2023-02-08T00:09:37.234Z,10.15
2023-02-08T00:12:05.852Z,11.00
2023-02-08T00:14:34.200Z,9.13
2023-02-08T00:17:02.618Z,10.07
2023-02-08T00:19:30.998Z,10.07
2023-02-08T00:21:59.425Z,12.23
2023-02-08T00:24:27.892Z,11.45
2023-02-08T00:26:57.704Z,9.93
2023-02-08T00:29:26.111Z,9.48
2023-02-08T00:31:55.608Z,10.98
2023-02-08T00:34:24.191Z,10.35
2023-02-08T00:36:52.753Z,11.07
2023-02-08T00:39:21.989Z,10.73
2023-02-08T00:41:50.809Z,10.75
2023-02-08T00:44:20.773Z,10.52
2023-02-08T00:46:52.683Z,9.80
2023-02-08T00:49:21.110Z,9.63
2023-02-08T00:51:49.765Z,10.10
2023-02-08T00:54:18.656Z,10.45
2023-02-08T00:56:46.999Z,10.65
2023-02-08T00:59:15.563Z,10.18
2023-02-08T01:01:48.032Z,9.85
2023-02-08T01:04:17.430Z,11.05
2023-02-08T01:06:45.676Z,9.38
2023-02-08T01:09:14.082Z,10.38
2023-02-08T01:11:42.505Z,11.05
2023-02-08T01:14:11.080Z,10.75
2023-02-08T01:16:39.494Z,10.35
2023-02-08T01:19:09.234Z,10.30
2023-02-08T01:21:38.193Z,11.18
2023-02-08T01:24:07.006Z,11.10
2023-02-08T01:26:35.590Z,10.50
2023-02-08T01:29:07.459Z,11.63
2023-02-08T01:31:37.123Z,10.88
2023-02-08T01:34:06.086Z,9.65
2023-02-08T01:36:36.395Z,10.32
2023-02-08T01:39:05.265Z,11.40
2023-02-08T01:41:34.620Z,10.80
2023-02-08T01:44:05.080Z,10.52
2023-02-08T01:46:34.001Z,10.07
2023-02-08T01:49:04.879Z,9.48
2023-02-08T01:51:34.712Z,10.80
2023-02-08T01:54:05.331Z,11.05
2023-02-08T01:56:34.818Z,9.93
2023-02-08T01:59:04.741Z,10.00
2023-02-08T02:01:33.241Z,11.45
2023-02-08T02:04:02.586Z,10.55
2023-02-08T02:06:32.526Z,9.73
2023-02-08T02:09:07.085Z,11.00
2023-02-08T02:11:35.329Z,10.45
2023-02-08T02:14:03.823Z,10.45
2023-02-08T02:16:32.163Z,9.75
2023-02-08T02:19:00.643Z,9.80
2023-02-08T02:21:36.712Z,10.25
2023-02-08T02:24:35.245Z,10.20
2023-02-08T02:27:15.213Z,9.98
2023-02-08T02:29:58.427Z,9.30
2023-02-08T02:32:33.086Z,11.18
2023-02-08T02:35:04.955Z,9.95
2023-02-08T02:37:39.535Z,10.10
2023-02-08T02:40:11.975Z,10.40
2023-02-08T02:43:04.273Z,8.95
2023-02-08T02:45:36.336Z,11.00
2023-02-08T02:48:09.728Z,9.48
2023-02-08T02:50:39.710Z,9.60
2023-02-08T02:53:10.960Z,10.77
2023-02-08T02:55:42.655Z,9.88
2023-02-08T02:58:12.423Z,9.70
2023-02-08T03:00:41.573Z,10.32
2023-02-08T03:03:18.810Z,9.68
2023-02-08T03:05:47.215Z,10.77
2023-02-08T03:08:26.381Z,10.80
2023-02-08T03:11:01.004Z,10.73
2023-02-08T03:13:33.802Z,10.10
2023-02-08T03:16:03.879Z,11.05
2023-02-08T03:18:36.984Z,9.73
2023-02-08T03:21:11.597Z,9.90
2023-02-08T03:23:42.901Z,10.02
2023-02-08T03:26:13.068Z,10.40
2023-02-08T03:28:42.687Z,9.68
2023-02-08T03:31:15.414Z,9.98
2023-02-08T03:33:48.741Z,9.82
2023-02-08T03:36:23.187Z,10.27
2023-02-08T03:38:52.589Z,10.20
2023-02-08T03:41:22.684Z,8.80
2023-02-08T03:43:54.060Z,9.48
2023-02-08T03:46:23.860Z,9.65
2023-02-08T03:48:56.405Z,10.07
2023-02-08T03:51:25.998Z,9.57
2023-02-08T03:53:55.630Z,9.65
2023-02-08T03:56:27.054Z,10.35
2023-02-08T03:58:58.174Z,10.20
2023-02-08T04:01:28.930Z,10.27
2023-02-08T04:03:59.092Z,9.60
2023-02-08T04:06:27.592Z,9.50
2023-02-08T04:08:56.131Z,9.68
2023-02-08T04:11:24.432Z,11.07
2023-02-08T04:13:52.916Z,9.65
2023-02-08T04:16:21.185Z,9.85
2023-02-08T04:18:49.823Z,9.55
2023-02-08T04:21:21.834Z,9.05
2023-02-08T04:23:50.105Z,8.00
2023-02-08T04:26:18.365Z,10.30
2023-02-08T04:28:46.846Z,9.70
2023-02-08T04:31:15.194Z,8.82
2023-02-08T04:36:30.939Z,9.95
2023-02-08T04:41:45.347Z,9.57
2023-02-08T04:44:14.840Z,8.88
2023-02-08T04:46:43.151Z,9.63
2023-02-08T04:49:11.549Z,9.98
2023-02-08T04:51:41.219Z,9.07
2023-02-08T04:54:09.459Z,9.52
2023-02-08T04:56:37.933Z,10.30
2023-02-08T04:59:06.646Z,9.32
2023-02-08T05:01:35.046Z,9.05
2023-02-08T05:04:04.023Z,9.20
2023-02-08T05:06:32.372Z,9.20
2023-02-08T05:09:02.000Z,9.20
2023-02-08T05:11:30.453Z,11.05
2023-02-08T05:13:58.676Z,9.73
2023-02-08T05:16:27.053Z,9.95
2023-02-08T05:18:57.407Z,9.77
2023-02-08T05:21:25.937Z,9.15
2023-02-08T05:23:54.321Z,10.30
2023-02-08T05:26:24.108Z,9.27
2023-02-08T05:28:52.801Z,9.60
2023-02-08T05:31:22.815Z,9.98
2023-02-08T05:33:51.833Z,8.85
2023-02-08T05:36:20.723Z,10.45
2023-02-08T05:38:49.022Z,10.25
2023-02-08T05:41:17.840Z,10.07
2023-02-08T05:43:47.597Z,9.73
2023-02-08T05:49:02.496Z,8.38
2023-02-08T05:51:30.742Z,9.82
2023-02-08T05:53:59.040Z,8.93
2023-02-08T05:56:27.928Z,9.52
2023-02-08T05:58:57.719Z,9.10
2023-02-08T06:01:25.946Z,9.90
2023-02-08T06:03:54.591Z,9.05
2023-02-08T06:06:22.974Z,9.38
2023-02-08T06:08:51.435Z,9.45
2023-02-08T06:11:20.126Z,9.18
2023-02-08T06:13:48.433Z,9.18
2023-02-08T06:16:19.975Z,10.77
2023-02-08T06:18:48.433Z,9.10
2023-02-08T06:21:16.609Z,8.32
2023-02-08T06:23:44.992Z,9.18
2023-02-08T06:26:13.252Z,10.00
2023-02-08T06:28:41.565Z,9.00
2023-02-08T06:31:24.630Z,7.93
2023-02-08T06:33:54.483Z,9.02
2023-02-08T06:36:23.151Z,8.85
2023-02-08T06:38:51.651Z,9.45
2023-02-08T06:41:20.089Z,8.98
2023-02-08T06:43:48.396Z,9.60
2023-02-08T06:46:16.823Z,8.85
2023-02-08T06:48:45.145Z,8.35
2023-02-08T06:51:14.810Z,9.60
2023-02-08T06:53:43.327Z,8.48
2023-02-08T06:56:11.568Z,9.77
2023-02-08T06:58:39.858Z,10.15
2023-02-08T07:01:08.295Z,10.05
2023-02-08T07:03:36.598Z,8.82
2023-02-08T07:06:05.813Z,8.27
2023-02-08T07:08:35.843Z,8.77
2023-02-08T07:11:07.854Z,9.82
2023-02-08T07:13:36.221Z,9.95
2023-02-08T07:16:04.620Z,9.27
2023-02-08T07:18:32.933Z,8.32
2023-02-08T07:21:01.416Z,8.95
2023-02-08T07:23:29.691Z,8.93
2023-02-08T07:26:00.289Z,8.30
2023-02-08T07:28:28.967Z,9.63
2023-02-08T07:30:57.446Z,8.82
2023-02-08T07:33:26.384Z,8.48
2023-02-08T07:35:54.738Z,9.27
2023-02-08T07:38:23.053Z,7.97
2023-02-08T07:40:51.840Z,8.75
2023-02-08T07:43:21.905Z,8.30
2023-02-08T07:45:58.708Z,9.70
2023-02-08T07:48:27.191Z,9.18
2023-02-08T07:50:55.580Z,9.60
2023-02-08T07:53:23.970Z,9.25
2023-02-08T07:55:52.807Z,9.48
2023-02-08T07:58:22.683Z,8.93
2023-02-08T08:00:51.039Z,8.93
2023-02-08T08:03:19.686Z,9.00
2023-02-08T08:05:49.400Z,10.73
2023-02-08T08:08:19.797Z,8.77
2023-02-08T08:10:48.251Z,9.77
2023-02-08T08:13:16.664Z,9.63
2023-02-08T08:15:46.386Z,9.85
2023-02-08T08:18:14.677Z,9.52
2023-02-08T08:20:42.952Z,10.27
2023-02-08T08:23:11.330Z,9.23
2023-02-08T08:25:40.116Z,31.08
2023-02-08T08:28:08.464Z,26.25
2023-02-08T08:30:36.848Z,15.45
2023-02-08T08:33:07.184Z,11.38
2023-02-08T08:35:35.539Z,10.43
2023-02-08T08:38:03.919Z,8.65
2023-02-08T08:40:32.387Z,9.88
2023-02-08T08:43:00.718Z,9.93
2023-02-08T08:45:29.380Z,9.60
2023-02-08T08:47:58.469Z,9.75
2023-02-08T08:50:28.064Z,9.93
2023-02-08T08:52:56.419Z,9.95
2023-02-08T08:55:24.741Z,9.45
2023-02-08T08:57:54.351Z,9.23
2023-02-08T09:00:23.038Z,11.80
2023-02-08T09:02:51.607Z,10.45
2023-02-08T09:05:20.051Z,10.50
2023-02-08T09:07:49.865Z,10.70
2023-02-08T09:10:18.344Z,10.98
2023-02-08T09:12:46.684Z,10.02
2023-02-08T09:15:15.119Z,10.18
2023-02-08T09:17:44.403Z,10.73
2023-02-08T09:20:12.969Z,9.68
2023-02-08T09:22:41.238Z,10.60
2023-02-08T09:25:11.091Z,10.27
2023-02-08T09:27:39.375Z,9.85
2023-02-08T09:30:08.098Z,9.93
2023-02-08T09:32:36.818Z,11.13
2023-02-08T09:35:05.179Z,10.15
2023-02-08T09:37:33.649Z,9.32
2023-02-08T09:40:01.910Z,10.98
2023-02-08T09:42:35.607Z,10.00
2023-02-08T09:45:13.239Z,9.63
2023-02-08T09:47:44.888Z,9.05
2023-02-08T09:50:15.214Z,8.93
2023-02-08T09:52:45.398Z,9.23
2023-02-08T09:55:23.850Z,9.55
2023-02-08T09:57:55.442Z,10.27
2023-02-08T10:00:27.534Z,9.45
2023-02-08T10:02:56.193Z,8.93
2023-02-08T10:05:26.679Z,9.43
2023-02-08T10:07:56.327Z,9.27
2023-02-08T10:10:33.469Z,9.52
2023-02-08T10:13:13.871Z,9.30
2023-02-08T10:15:45.387Z,9.63
2023-02-08T10:18:20.813Z,9.40
2023-02-08T10:20:57.868Z,8.85
2023-02-08T10:23:42.694Z,10.25
2023-02-08T10:26:16.296Z,9.93
2023-02-08T10:28:54.732Z,9.38
2023-02-08T10:31:30.206Z,8.80
2023-02-08T10:34:02.908Z,8.48
2023-02-08T10:36:33.644Z,8.90
2023-02-08T10:39:02.577Z,9.85
2023-02-08T10:41:33.824Z,9.43
2023-02-08T10:44:07.618Z,9.30
2023-02-08T10:46:38.593Z,8.82
2023-02-08T10:49:09.971Z,8.98
2023-02-08T10:51:38.729Z,8.88
2023-02-08T10:54:07.208Z,8.02
2023-02-08T10:56:52.484Z,9.23
2023-02-08T11:02:19.991Z,9.27
2023-02-08T11:04:59.458Z,8.98
2023-02-08T11:07:28.100Z,9.48
2023-02-08T11:09:56.401Z,9.25
2023-02-08T11:12:24.863Z,9.57
2023-02-08T11:14:54.755Z,8.70
2023-02-08T11:17:26.679Z,9.35
2023-02-08T11:19:55.127Z,8.73
2023-02-08T11:25:31.995Z,9.02
2023-02-08T11:30:56.224Z,8.35
2023-02-08T11:33:25.862Z,8.73
2023-02-08T11:35:56.224Z,8.35
2023-02-08T11:38:28.152Z,8.18
2023-02-08T11:40:57.987Z,8.18
2023-02-08T11:43:27.779Z,8.57
2023-02-08T11:45:58.585Z,8.65
2023-02-08T11:48:28.873Z,8.23
2023-02-08T11:50:59.775Z,8.85
2023-02-08T11:53:29.840Z,8.00
2023-02-08T11:56:08.979Z,6.85
2023-02-08T11:58:37.374Z,7.85
2023-02-08T12:01:07.709Z,8.25
2023-02-08T12:03:39.118Z,8.73
2023-02-08T12:06:19.811Z,7.40
2023-02-08T12:08:54.729Z,7.35
2023-02-08T12:11:27.855Z,7.07
2023-02-08T12:14:07.785Z,7.60
2023-02-08T12:16:44.076Z,6.78
2023-02-08T12:19:22.849Z,8.23
2023-02-08T12:21:56.975Z,7.72
2023-02-08T12:24:28.028Z,7.18
2023-02-08T12:27:09.038Z,6.88
2023-02-08T12:29:47.685Z,7.90
2023-02-08T12:32:33.405Z,7.53
2023-02-08T12:35:12.405Z,7.30
2023-02-08T12:38:04.364Z,7.97
2023-02-08T12:40:52.705Z,7.07
2023-02-08T12:43:44.525Z,8.13
2023-02-08T12:46:34.990Z,8.23
2023-02-08T12:49:23.983Z,7.13
2023-02-08T12:51:58.812Z,7.53
2023-02-08T12:54:32.403Z,8.38
2023-02-08T12:57:02.858Z,6.70
2023-02-08T12:59:33.304Z,6.93
2023-02-08T13:02:04.881Z,6.85
2023-02-08T13:04:35.881Z,7.35
2023-02-08T13:07:10.531Z,7.35
2023-02-08T13:09:42.170Z,7.28
2023-02-08T13:12:14.452Z,7.55
2023-02-08T13:14:44.960Z,8.00
2023-02-08T13:17:15.603Z,6.82
2023-02-08T13:19:59.614Z,6.68
2023-02-08T13:22:32.810Z,6.35
2023-02-08T13:25:07.517Z,6.68
2023-02-08T13:27:36.634Z,7.93
2023-02-08T13:30:05.677Z,6.88
2023-02-08T13:32:37.149Z,7.18
2023-02-08T13:35:09.158Z,6.25
2023-02-08T13:37:39.063Z,6.97
2023-02-08T13:40:08.601Z,7.20
2023-02-08T13:42:39.718Z,7.15
2023-02-08T13:45:09.837Z,6.55
2023-02-08T13:50:45.252Z,7.18
2023-02-08T13:53:17.251Z,6.38
2023-02-08T13:55:53.523Z,7.38
2023-02-08T13:58:38.529Z,6.18
2023-02-08T14:01:17.141Z,6.30
2023-02-08T14:03:46.386Z,6.65
2023-02-08T14:06:22.632Z,6.15
2023-02-08T14:08:55.880Z,5.93
2023-02-08T14:11:31.943Z,7.18
2023-02-08T14:14:02.106Z,6.32
2023-02-08T14:16:32.012Z,6.47
2023-02-08T14:19:01.426Z,4.90
2023-02-08T14:21:32.588Z,5.50
2023-02-08T14:24:03.855Z,6.05
2023-02-08T14:26:32.609Z,6.88
2023-02-08T14:29:01.761Z,5.40
2023-02-08T14:31:40.994Z,6.03
2023-02-08T14:34:22.320Z,5.93
2023-02-08T14:36:59.807Z,5.57
2023-02-08T14:39:30.475Z,5.82
2023-02-08T14:42:01.291Z,5.47
2023-02-08T14:44:57.011Z,6.35
2023-02-08T14:47:44.098Z,5.85
2023-02-08T14:50:17.382Z,5.80
2023-02-08T14:52:49.747Z,6.50
2023-02-08T14:55:21.772Z,6.20
2023-02-08T14:57:50.760Z,6.82
2023-02-08T15:00:21.095Z,6.07
2023-02-08T15:02:50.042Z,6.07
2023-02-08T15:05:24.978Z,5.85
2023-02-08T15:07:54.910Z,5.93
2023-02-08T15:10:25.888Z,5.47
2023-02-08T15:12:56.297Z,5.78
2023-02-08T15:15:26.395Z,5.35
2023-02-08T15:17:55.369Z,5.93
2023-02-08T15:20:24.989Z,5.43
2023-02-08T15:23:00.122Z,6.32
2023-02-08T15:25:31.524Z,5.60
2023-02-08T15:28:01.053Z,6.93
2023-02-08T15:30:31.740Z,6.13
2023-02-08T15:33:00.655Z,6.00
2023-02-08T15:35:29.296Z,6.68
2023-02-08T15:37:57.782Z,6.35
2023-02-08T15:40:30.703Z,6.95
2023-02-08T15:43:05.542Z,6.03
2023-02-08T15:45:33.835Z,6.25
2023-02-08T15:48:03.155Z,6.50
2023-02-08T15:50:33.484Z,7.25
2023-02-08T15:53:02.964Z,7.40
2023-02-08T15:55:33.052Z,7.05
2023-02-08T15:58:02.859Z,6.50
2023-02-08T16:00:33.620Z,6.88
2023-02-08T16:03:02.795Z,6.93
2023-02-08T16:05:32.286Z,6.68
2023-02-08T16:08:00.983Z,7.28
2023-02-08T16:10:33.746Z,7.18
2023-02-08T16:13:03.742Z,6.80
2023-02-08T16:15:52.038Z,7.47
2023-02-08T16:18:40.661Z,8.20
2023-02-08T16:21:20.301Z,6.70
2023-02-08T16:23:53.173Z,8.13
2023-02-08T16:26:23.064Z,7.50
2023-02-08T16:28:55.920Z,8.07
2023-02-08T16:31:28.549Z,7.97
2023-02-08T16:34:02.471Z,7.05
2023-02-08T16:36:34.431Z,8.10
2023-02-08T16:39:21.727Z,8.13
2023-02-08T16:42:14.578Z,9.05
2023-02-08T16:44:59.194Z,8.45
2023-02-08T16:47:28.632Z,8.30
2023-02-08T16:49:58.283Z,8.02
2023-02-08T16:52:26.624Z,7.90
2023-02-08T16:54:55.252Z,8.52
2023-02-08T16:57:23.576Z,9.00
2023-02-08T16:59:51.937Z,8.93
2023-02-08T17:02:20.752Z,7.68
2023-02-08T17:04:51.418Z,8.13
2023-02-08T17:07:21.087Z,8.35
2023-02-08T17:09:49.891Z,8.02
2023-02-08T17:12:22.724Z,7.90
2023-02-08T17:14:51.858Z,8.35
2023-02-08T17:17:21.400Z,8.68
2023-02-08T17:19:50.104Z,7.82
2023-02-08T17:22:18.957Z,7.82
2023-02-08T17:24:48.790Z,9.02
2023-02-08T17:27:17.098Z,8.57
2023-02-08T17:29:45.484Z,9.00
2023-02-08T17:32:13.803Z,9.48
2023-02-08T17:34:42.050Z,9.38
2023-02-08T17:37:10.894Z,9.25
2023-02-08T17:39:39.265Z,9.13
2023-02-08T17:42:10.829Z,9.48
2023-02-08T17:44:39.537Z,8.98
2023-02-08T17:47:07.941Z,9.90
2023-02-08T17:49:36.211Z,9.40
2023-02-08T17:52:05.274Z,9.75
2023-02-08T17:54:35.044Z,10.18
2023-02-08T17:57:04.269Z,8.73
2023-02-08T17:59:34.428Z,8.93
2023-02-08T18:02:02.966Z,9.55
2023-02-08T18:04:31.365Z,9.40
2023-02-08T18:06:59.761Z,9.90
2023-02-08T18:09:28.355Z,10.48
2023-02-08T18:11:56.710Z,10.60
2023-02-08T18:14:25.109Z,10.48
2023-02-08T18:16:54.723Z,10.32
2023-02-08T18:19:23.362Z,10.65
2023-02-08T18:21:52.051Z,9.30
2023-02-08T18:24:20.845Z,7.40
2023-02-08T18:26:49.703Z,8.13
2023-02-08T18:29:19.714Z,6.55
2023-02-08T18:31:48.165Z,7.68
2023-02-08T18:34:17.850Z,7.32
2023-02-08T18:36:46.530Z,8.63
2023-02-08T18:39:15.642Z,7.60
2023-02-08T18:41:44.113Z,7.97
2023-02-08T18:44:12.920Z,7.35
2023-02-08T18:46:41.159Z,8.15
2023-02-08T18:49:09.518Z,8.07
2023-02-08T18:51:39.215Z,7.07
2023-02-08T18:54:07.908Z,8.02
2023-02-08T18:56:36.262Z,7.85
2023-02-08T18:59:04.610Z,7.85
2023-02-08T19:01:33.104Z,8.00
2023-02-08T19:04:03.252Z,7.95
2023-02-08T19:06:32.656Z,7.38
2023-02-08T19:09:03.808Z,6.35
2023-02-08T19:11:34.048Z,6.88
2023-02-08T19:14:03.310Z,6.38
2023-02-08T19:16:31.986Z,7.70
2023-02-08T19:19:01.241Z,7.22
2023-02-08T19:21:30.578Z,6.82
2023-02-08T19:24:00.622Z,7.35
2023-02-08T19:26:31.382Z,7.75
2023-02-08T19:29:03.076Z,7.32
2023-02-08T19:31:31.959Z,8.07
2023-02-08T19:34:03.448Z,6.97
2023-02-08T19:36:32.828Z,7.15
2023-02-08T19:39:01.314Z,7.20
2023-02-08T19:41:33.083Z,6.88
2023-02-08T19:44:01.981Z,8.05
2023-02-08T19:46:30.458Z,7.22
2023-02-08T19:49:00.195Z,8.07
2023-02-08T19:51:29.117Z,8.35
2023-02-08T19:53:58.514Z,8.98
2023-02-08T19:56:26.875Z,8.02
2023-02-08T19:58:56.527Z,8.25
2023-02-08T20:01:25.140Z,7.22
2023-02-08T20:03:54.918Z,7.68
2023-02-08T20:06:24.710Z,8.30
2023-02-08T20:08:53.421Z,7.97
2023-02-08T20:11:25.631Z,8.30
2023-02-08T20:13:54.227Z,7.85
2023-02-08T20:16:24.721Z,6.82
2023-02-08T20:18:53.261Z,7.43
2023-02-08T20:21:22.473Z,6.90
2023-02-08T20:23:51.148Z,6.80
2023-02-08T20:26:21.202Z,7.90
2023-02-08T20:28:51.206Z,7.70
2023-02-08T20:31:20.904Z,9.18
2023-02-08T20:33:50.881Z,7.50
2023-02-08T20:36:20.801Z,8.98
2023-02-08T20:38:49.654Z,7.47
2023-02-08T20:41:18.423Z,6.72
2023-02-08T20:43:47.190Z,8.00
2023-02-08T20:46:16.548Z,8.50
2023-02-08T20:48:44.923Z,7.90
2023-02-08T20:51:15.408Z,7.85
2023-02-08T20:53:44.122Z,8.82
2023-02-08T20:56:14.452Z,8.68
2023-02-08T20:58:43.320Z,7.65
2023-02-08T21:01:13.046Z,7.53
2023-02-08T21:03:41.325Z,7.85
2023-02-08T21:06:13.312Z,7.97
2023-02-08T21:08:43.412Z,7.72
2023-02-08T21:11:11.977Z,9.07
2023-02-08T21:13:40.442Z,8.27
2023-02-08T21:16:09.002Z,9.07
2023-02-08T21:18:37.389Z,8.35
2023-02-08T21:21:06.067Z,8.75
2023-02-08T21:23:34.503Z,9.13
2023-02-08T21:26:04.812Z,8.45
2023-02-08T21:28:33.398Z,8.85
2023-02-08T21:31:03.208Z,7.85
2023-02-08T21:33:31.971Z,8.30
2023-02-08T21:36:03.122Z,8.15
2023-02-08T21:38:31.776Z,8.50
2023-02-08T21:41:00.126Z,8.30
2023-02-08T21:43:29.863Z,7.70
2023-02-08T21:45:58.119Z,7.05
2023-02-08T21:48:26.407Z,6.75
2023-02-08T21:51:12.283Z,7.03
2023-02-08T21:53:58.347Z,7.22
2023-02-08T21:56:26.769Z,6.72
2023-02-08T21:58:56.552Z,8.02
2023-02-08T22:01:24.804Z,7.78
2023-02-08T22:03:53.278Z,7.68
2023-02-08T22:06:21.683Z,8.25
2023-02-08T22:08:49.913Z,5.63
2023-02-08T22:11:18.311Z,7.50
2023-02-08T22:13:46.552Z,7.63
2023-02-08T22:16:18.136Z,7.53
2023-02-08T22:18:46.716Z,6.57
2023-02-08T22:21:14.950Z,6.90
2023-02-08T22:23:43.246Z,7.53
2023-02-08T22:26:12.005Z,7.90
2023-02-08T22:28:40.375Z,7.80
2023-02-08T22:31:08.755Z,8.05
2023-02-08T22:33:38.556Z,6.55
2023-02-08T22:36:07.931Z,7.72
2023-02-08T22:38:36.333Z,6.85
2023-02-08T22:41:10.482Z,7.53
2023-02-08T22:43:38.692Z,7.35
2023-02-08T22:46:07.213Z,6.90
2023-02-08T22:48:35.769Z,7.75
2023-02-08T22:51:08.432Z,6.95
2023-02-08T22:53:36.781Z,7.68
2023-02-08T22:56:05.147Z,7.15
2023-02-08T22:58:33.476Z,7.07
2023-02-08T23:01:02.303Z,7.00
2023-02-08T23:03:30.594Z,6.80
2023-02-08T23:05:59.017Z,7.35
2023-02-08T23:08:28.944Z,6.28
2023-02-08T23:10:59.932Z,6.63
2023-02-08T23:13:30.290Z,6.57
2023-02-08T23:15:58.947Z,6.05
2023-02-08T23:18:27.481Z,6.15
2023-02-08T23:20:56.148Z,7.28
2023-02-08T23:23:24.426Z,7.00
2023-02-08T23:25:54.145Z,6.72
2023-02-08T23:28:25.770Z,6.93
2023-02-08T23:30:54.496Z,6.72
2023-02-08T23:33:22.772Z,7.07
2023-02-08T23:35:51.255Z,5.97
2023-02-08T23:38:19.720Z,6.38
2023-02-08T23:40:48.024Z,6.28
2023-02-08T23:43:17.708Z,7.30
2023-02-08T23:45:45.985Z,6.18
2023-02-08T23:48:14.281Z,6.32
2023-02-08T23:50:43.045Z,6.80
2023-02-08T23:53:11.439Z,6.50
2023-02-08T23:55:39.702Z,5.82
2023-02-08T23:58:08.048Z,7.03
